createdAt,value
2023-05-07T00:03:01.419Z,7.94
2023-05-07T00:05:29.303Z,7.88
2023-05-07T00:07:58.449Z,7.87
2023-05-07T00:10:27.419Z,7.84
2023-05-07T00:12:55.541Z,7.79
2023-05-07T00:15:22.544Z,7.73
2023-05-07T00:19:05.523Z,7.72
2023-05-07T00:21:10.156Z,7.68
2023-05-07T00:23:38.827Z,7.66
2023-05-07T00:26:36.721Z,7.58
2023-05-07T00:29:23.960Z,7.60
2023-05-07T00:32:12.449Z,7.51
2023-05-07T00:35:08.507Z,7.47
2023-05-07T00:41:06.281Z,7.41
2023-05-07T00:43:36.368Z,7.38
2023-05-07T00:46:27.905Z,7.35
2023-05-07T00:49:11.429Z,7.33
2023-05-07T00:51:42.319Z,7.38
2023-05-07T00:54:11.029Z,7.32
2023-05-07T00:56:45.108Z,7.31
2023-05-07T00:59:12.835Z,7.37
2023-05-07T01:01:45.668Z,7.33
2023-05-07T01:04:13.470Z,7.30
2023-05-07T01:06:43.426Z,7.24
2023-05-07T01:09:16.231Z,7.22
2023-05-07T01:11:45.518Z,7.18
2023-05-07T01:14:13.531Z,7.13
2023-05-07T01:16:43.244Z,7.09
2023-05-07T01:19:13.162Z,7.02
2023-05-07T01:21:48.815Z,7.02
2023-05-07T01:24:17.988Z,7.07
2023-05-07T01:26:46.956Z,7.05
2023-05-07T01:29:14.753Z,7.01
2023-05-07T01:31:44.446Z,6.95
2023-05-07T01:34:14.716Z,6.93
2023-05-07T01:36:45.049Z,6.91
2023-05-07T01:39:17.622Z,6.92
2023-05-07T01:41:45.430Z,6.95
2023-05-07T01:44:16.208Z,6.99
2023-05-07T01:46:44.504Z,6.93
2023-05-07T01:49:12.327Z,6.91
2023-05-07T01:51:40.520Z,6.89
2023-05-07T01:54:10.232Z,6.85
2023-05-07T01:56:38.146Z,6.86
2023-05-07T01:59:06.482Z,6.87
2023-05-07T02:01:36.790Z,6.85
2023-05-07T02:04:04.538Z,6.82
2023-05-07T02:06:35.772Z,6.76
2023-05-07T02:09:03.898Z,6.75
2023-05-07T02:11:31.848Z,6.77
2023-05-07T02:13:59.396Z,6.81
2023-05-07T02:16:27.019Z,6.79
2023-05-07T02:18:55.135Z,6.83
2023-05-07T02:21:22.915Z,6.82
2023-05-07T02:23:50.651Z,6.79
2023-05-07T02:26:22.799Z,6.74
2023-05-07T02:28:53.405Z,6.74
2023-05-07T02:31:21.676Z,6.73
2023-05-07T02:33:49.447Z,6.68
2023-05-07T02:36:20.018Z,6.67
2023-05-07T02:38:48.271Z,6.63
2023-05-07T02:41:15.140Z,6.59
2023-05-07T02:43:41.894Z,6.52
2023-05-07T02:46:09.929Z,6.55
2023-05-07T02:48:38.251Z,6.55
2023-05-07T02:51:07.178Z,6.56
2023-05-07T02:53:35.112Z,6.44
2023-05-07T02:56:02.485Z,6.39
2023-05-07T02:58:30.272Z,6.30
2023-05-07T03:00:57.137Z,6.28
2023-05-07T03:03:26.042Z,6.26
2023-05-07T03:05:52.921Z,6.23
2023-05-07T03:08:19.784Z,6.22
2023-05-07T03:10:46.816Z,6.12
2023-05-07T03:13:13.860Z,6.10
2023-05-07T03:15:40.800Z,6.11
2023-05-07T03:18:07.811Z,6.11
2023-05-07T03:20:34.993Z,6.07
2023-05-07T03:23:11.104Z,6.07
2023-05-07T03:25:38.074Z,6.04
2023-05-07T03:28:05.319Z,6.06
2023-05-07T03:30:32.143Z,6.07
2023-05-07T03:32:59.122Z,6.06
2023-05-07T03:35:26.294Z,6.14
2023-05-07T03:37:53.518Z,6.16
2023-05-07T03:40:21.345Z,6.17
2023-05-07T03:42:48.421Z,6.17
2023-05-07T03:45:15.297Z,6.25
2023-05-07T03:47:42.112Z,6.28
2023-05-07T03:50:09.864Z,6.28
2023-05-07T03:52:36.912Z,6.34
2023-05-07T03:55:03.988Z,6.41
2023-05-07T03:57:31.148Z,6.48
2023-05-07T03:59:58.209Z,6.60
2023-05-07T04:02:25.163Z,6.74
2023-05-07T04:04:52.430Z,6.83
2023-05-07T04:07:19.128Z,6.95
2023-05-07T04:09:45.997Z,7.05
2023-05-07T04:12:12.891Z,7.16
2023-05-07T04:14:40.804Z,7.28
2023-05-07T04:17:08.305Z,7.54
2023-05-07T04:19:39.409Z,7.88
2023-05-07T04:22:07.445Z,8.11
2023-05-07T04:24:34.812Z,8.48
2023-05-07T04:27:03.129Z,8.77
2023-05-07T04:29:30.814Z,8.92
2023-05-07T04:32:00.631Z,9.21
2023-05-07T04:34:28.269Z,9.50
2023-05-07T04:36:56.231Z,9.75
2023-05-07T04:39:23.320Z,10.08
2023-05-07T04:41:50.392Z,10.40
2023-05-07T04:44:18.095Z,10.72
2023-05-07T04:46:51.034Z,11.11
2023-05-07T04:49:18.407Z,11.39
2023-05-07T04:51:46.199Z,11.77
2023-05-07T04:54:12.980Z,12.09
2023-05-07T04:56:40.319Z,12.39
2023-05-07T04:59:07.179Z,12.65
2023-05-07T05:01:34.233Z,12.92
2023-05-07T05:04:01.764Z,13.18
2023-05-07T05:06:28.653Z,13.39
2023-05-07T05:08:57.200Z,13.65
2023-05-07T05:11:24.296Z,13.91
2023-05-07T05:13:51.130Z,14.19
2023-05-07T05:16:18.351Z,14.35
2023-05-07T05:18:45.511Z,14.53
2023-05-07T05:21:12.597Z,14.74
2023-05-07T05:23:40.273Z,14.97
2023-05-07T05:26:07.902Z,15.18
2023-05-07T05:28:35.294Z,15.33
2023-05-07T05:31:03.103Z,15.46
2023-05-07T05:33:32.557Z,15.68
2023-05-07T05:35:59.352Z,15.79
2023-05-07T05:38:27.062Z,16.05
2023-05-07T05:40:56.537Z,16.20
2023-05-07T05:43:24.254Z,16.40
2023-05-07T05:45:51.352Z,16.62
2023-05-07T05:48:18.163Z,16.79
2023-05-07T05:50:45.057Z,17.18
2023-05-07T05:53:11.888Z,17.34
2023-05-07T05:55:39.271Z,17.62
2023-05-07T05:58:06.677Z,17.78
2023-05-07T06:00:34.142Z,17.96
2023-05-07T06:03:01.421Z,18.06
2023-05-07T06:05:28.648Z,18.37
2023-05-07T06:07:55.540Z,18.54
2023-05-07T06:10:22.512Z,18.82
2023-05-07T06:12:49.775Z,19.04
2023-05-07T06:15:16.785Z,19.16
2023-05-07T06:17:45.621Z,19.48
2023-05-07T06:20:12.841Z,19.69
2023-05-07T06:22:39.804Z,19.80
2023-05-07T06:25:11.219Z,19.74
2023-05-07T06:27:38.615Z,19.88
2023-05-07T06:30:07.531Z,20.06
2023-05-07T06:32:34.518Z,20.30
2023-05-07T06:35:01.341Z,20.60
2023-05-07T06:37:28.471Z,21.01
2023-05-07T06:39:56.050Z,21.00
2023-05-07T06:42:23.990Z,21.07
2023-05-07T06:44:51.041Z,21.22
2023-05-07T06:47:17.942Z,21.37
2023-05-07T06:49:46.005Z,21.54
2023-05-07T06:52:13.760Z,21.69
2023-05-07T06:54:40.715Z,21.73
2023-05-07T06:57:08.260Z,21.85
2023-05-07T06:59:35.156Z,21.92
2023-05-07T07:02:01.986Z,21.86
2023-05-07T07:04:29.571Z,21.72
2023-05-07T07:06:57.995Z,21.78
2023-05-07T07:09:25.284Z,21.78
2023-05-07T07:11:54.797Z,21.95
2023-05-07T07:14:23.794Z,21.94
2023-05-07T07:16:51.292Z,22.17
2023-05-07T07:19:17.988Z,22.13
2023-05-07T07:21:46.014Z,22.33
2023-05-07T07:24:14.760Z,22.56
2023-05-07T07:26:41.541Z,22.61
2023-05-07T07:29:32.378Z,22.65
2023-05-07T07:32:18.930Z,22.67
2023-05-07T07:34:46.152Z,22.54
2023-05-07T07:37:12.989Z,22.64
2023-05-07T07:39:43.741Z,22.71
2023-05-07T07:42:10.872Z,22.89
2023-05-07T07:44:37.512Z,22.90
2023-05-07T07:47:04.711Z,22.83
2023-05-07T07:49:31.512Z,22.86
2023-05-07T07:52:00.530Z,22.63
2023-05-07T07:54:27.610Z,22.85
2023-05-07T07:56:55.223Z,22.94
2023-05-07T07:59:43.702Z,22.80
2023-05-07T08:02:11.047Z,22.86
2023-05-07T08:04:39.133Z,22.96
2023-05-07T08:07:06.973Z,23.26
2023-05-07T08:09:33.776Z,23.28
2023-05-07T08:12:00.931Z,23.18
2023-05-07T08:14:29.601Z,22.94
2023-05-07T08:16:56.893Z,23.15
2023-05-07T08:19:25.729Z,23.12
2023-05-07T08:21:52.682Z,23.18
2023-05-07T08:24:19.597Z,23.23
2023-05-07T08:26:47.642Z,23.56
2023-05-07T08:29:15.288Z,23.46
2023-05-07T08:31:56.342Z,23.70
2023-05-07T08:34:24.987Z,23.67
2023-05-07T08:36:55.880Z,23.78
2023-05-07T08:39:25.096Z,23.75
2023-05-07T08:42:24.482Z,23.38
2023-05-07T08:45:51.444Z,23.65
2023-05-07T08:48:20.028Z,23.63
2023-05-07T08:50:54.229Z,23.48
2023-05-07T08:53:30.132Z,23.75
2023-05-07T08:56:54.048Z,23.89
2023-05-07T08:59:08.558Z,23.59
2023-05-07T09:04:59.878Z,23.85
2023-05-07T09:07:25.262Z,24.05
2023-05-07T09:09:59.774Z,24.17
2023-05-07T09:12:43.189Z,24.05
2023-05-07T09:15:18.077Z,24.22
2023-05-07T09:18:09.453Z,24.14
2023-05-07T09:20:45.250Z,24.01
2023-05-07T09:23:24.336Z,23.97
2023-05-07T09:26:10.260Z,23.95
2023-05-07T09:28:40.104Z,23.68
2023-05-07T09:31:07.765Z,23.81
2023-05-07T09:34:05.541Z,23.83
2023-05-07T09:36:34.898Z,23.96
2023-05-07T09:39:02.732Z,24.33
2023-05-07T09:41:34.441Z,24.38
2023-05-07T09:44:14.861Z,24.54
2023-05-07T09:47:05.003Z,24.58
2023-05-07T09:49:56.866Z,24.80
2023-05-07T09:52:35.238Z,24.91
2023-05-07T09:55:09.035Z,24.82
2023-05-07T09:57:50.597Z,24.88
2023-05-07T10:03:33.613Z,24.70
2023-05-07T10:06:01.976Z,24.77
2023-05-07T10:08:36.587Z,24.56
2023-05-07T10:11:06.031Z,24.32
2023-05-07T10:14:04.960Z,24.28
2023-05-07T10:16:40.587Z,24.26
2023-05-07T10:19:19.333Z,24.22
2023-05-07T10:22:49.377Z,24.24
2023-05-07T10:28:46.690Z,23.99
2023-05-07T10:31:54.164Z,24.14
2023-05-07T10:34:28.734Z,24.19
2023-05-07T10:37:01.536Z,24.46
2023-05-07T10:39:49.164Z,24.55
2023-05-07T10:42:58.813Z,24.38
2023-05-07T10:45:28.832Z,24.57
2023-05-07T10:48:33.392Z,24.74
2023-05-07T10:51:23.858Z,24.60
2023-05-07T10:54:14.989Z,24.27
2023-05-07T10:56:49.346Z,24.30
2023-05-07T10:59:44.104Z,24.45
2023-05-07T11:02:15.609Z,24.58
2023-05-07T11:04:43.385Z,24.74
2023-05-07T11:07:18.157Z,24.55
2023-05-07T11:09:54.502Z,24.75
2023-05-07T11:12:40.209Z,24.67
2023-05-07T11:15:36.212Z,24.85
2023-05-07T11:18:05.228Z,24.75
2023-05-07T11:21:02.968Z,24.83
2023-05-07T11:23:39.294Z,24.45
2023-05-07T11:26:11.402Z,24.36
2023-05-07T11:28:43.235Z,24.26
2023-05-07T11:31:15.916Z,23.95
2023-05-07T11:33:45.345Z,24.03
2023-05-07T11:36:17.837Z,24.24
2023-05-07T11:38:45.454Z,24.34
2023-05-07T11:41:13.312Z,24.53
2023-05-07T11:44:06.619Z,24.62
2023-05-07T11:46:51.151Z,24.76
2023-05-07T11:49:33.255Z,24.44
2023-05-07T11:52:00.429Z,24.38
2023-05-07T11:54:28.644Z,24.58
2023-05-07T11:57:01.154Z,24.53
2023-05-07T11:59:32.131Z,24.62
2023-05-07T12:02:00.961Z,24.50
2023-05-07T12:04:31.501Z,24.43
2023-05-07T12:06:58.587Z,24.52
2023-05-07T12:09:26.717Z,24.53
2023-05-07T12:11:58.157Z,24.70
2023-05-07T12:14:29.989Z,24.63
2023-05-07T12:16:57.793Z,24.60
2023-05-07T12:19:25.352Z,24.60
2023-05-07T12:21:59.506Z,24.73
2023-05-07T12:24:34.534Z,24.60
2023-05-07T12:27:02.372Z,24.45
2023-05-07T12:29:32.926Z,24.55
2023-05-07T12:32:00.616Z,24.66
2023-05-07T12:34:27.579Z,24.63
2023-05-07T12:36:54.522Z,24.69
2023-05-07T12:39:21.702Z,24.61
2023-05-07T12:41:59.864Z,24.67
2023-05-07T12:44:31.759Z,24.58
2023-05-07T12:47:11.493Z,24.47
2023-05-07T12:49:40.479Z,24.62
2023-05-07T12:52:08.629Z,24.61
2023-05-07T12:54:39.008Z,24.87
2023-05-07T12:57:08.100Z,24.92
2023-05-07T12:59:36.933Z,25.06
2023-05-07T13:02:03.934Z,25.26
2023-05-07T13:04:31.116Z,25.43
2023-05-07T13:06:59.798Z,25.49
2023-05-07T13:09:26.769Z,25.50
2023-05-07T13:11:54.066Z,25.47
2023-05-07T13:14:22.662Z,25.45
2023-05-07T13:16:53.107Z,25.39
2023-05-07T13:19:22.654Z,25.53
2023-05-07T13:21:50.857Z,25.31
2023-05-07T13:24:22.167Z,25.28
2023-05-07T13:26:49.434Z,25.09
2023-05-07T13:29:16.435Z,25.05
2023-05-07T13:32:13.875Z,25.07
2023-05-07T13:34:41.953Z,24.63
2023-05-07T13:43:55.020Z,24.65
2023-05-07T13:46:34.770Z,24.58
2023-05-07T13:49:08.413Z,24.47
2023-05-07T13:51:35.800Z,24.36
2023-05-07T13:58:07.195Z,24.55
2023-05-07T13:59:04.567Z,24.44
2023-05-07T14:04:02.290Z,24.47
2023-05-07T14:10:28.997Z,24.60
2023-05-07T14:13:00.269Z,24.63
2023-05-07T14:15:36.239Z,24.71
2023-05-07T14:18:03.346Z,24.68
2023-05-07T14:20:31.917Z,24.72
2023-05-07T14:23:00.154Z,24.56
2023-05-07T14:25:48.470Z,24.59
2023-05-07T14:28:19.221Z,24.52
2023-05-07T14:31:35.029Z,24.42
2023-05-07T14:34:12.165Z,24.28
2023-05-07T14:36:46.087Z,24.22
2023-05-07T14:39:20.284Z,24.11
2023-05-07T14:41:47.623Z,24.05
2023-05-07T14:47:10.716Z,24.29
2023-05-07T14:49:38.165Z,24.13
2023-05-07T14:52:08.034Z,24.03
2023-05-07T14:54:39.269Z,24.11
2023-05-07T14:57:09.391Z,24.27
2023-05-07T14:59:37.822Z,24.08
2023-05-07T15:02:10.203Z,24.03
2023-05-07T15:04:47.408Z,24.02
2023-05-07T15:07:20.895Z,24.02
2023-05-07T15:09:49.451Z,23.89
2023-05-07T15:13:40.465Z,23.80
2023-05-07T15:15:57.433Z,23.73
2023-05-07T15:18:23.085Z,23.63
2023-05-07T15:21:02.034Z,23.53
2023-05-07T15:23:29.234Z,23.60
2023-05-07T15:25:57.880Z,23.49
2023-05-07T15:28:29.252Z,23.41
2023-05-07T15:30:59.850Z,23.28
2023-05-07T15:33:27.365Z,23.17
2023-05-07T15:35:55.206Z,23.02
2023-05-07T15:38:22.849Z,22.91
2023-05-07T15:40:59.595Z,22.79
2023-05-07T15:43:34.313Z,22.68
2023-05-07T15:46:02.329Z,22.49
2023-05-07T15:48:30.245Z,22.37
2023-05-07T15:51:06.558Z,22.28
2023-05-07T15:53:41.207Z,22.08
2023-05-07T15:56:08.885Z,21.99
2023-05-07T15:58:37.663Z,21.85
2023-05-07T16:01:05.797Z,21.80
2023-05-07T16:03:33.447Z,21.70
2023-05-07T16:06:04.379Z,21.63
2023-05-07T16:08:32.363Z,21.52
2023-05-07T16:10:59.679Z,21.36
2023-05-07T16:13:26.954Z,21.26
2023-05-07T16:16:01.580Z,21.10
2023-05-07T16:18:29.480Z,20.98
2023-05-07T16:20:56.641Z,20.86
2023-05-07T16:23:23.654Z,20.74
2023-05-07T16:25:50.668Z,20.70
2023-05-07T16:28:21.833Z,20.65
2023-05-07T16:30:50.723Z,20.51
2023-05-07T16:33:17.502Z,20.44
2023-05-07T16:35:47.802Z,20.34
2023-05-07T16:38:14.570Z,20.28
2023-05-07T16:40:42.162Z,20.25
2023-05-07T16:43:08.943Z,20.17
2023-05-07T16:45:35.825Z,20.10
2023-05-07T16:48:03.487Z,19.97
2023-05-07T16:50:30.802Z,19.85
2023-05-07T16:52:57.913Z,19.71
2023-05-07T16:55:24.994Z,19.60
2023-05-07T16:57:52.084Z,19.46
2023-05-07T17:00:19.409Z,19.36
2023-05-07T17:02:47.106Z,19.25
2023-05-07T17:05:14.669Z,19.12
2023-05-07T17:07:42.399Z,19.02
2023-05-07T17:10:09.794Z,18.88
2023-05-07T17:12:38.266Z,18.72
2023-05-07T17:15:06.681Z,18.54
2023-05-07T17:17:33.845Z,18.47
2023-05-07T17:20:01.536Z,18.36
2023-05-07T17:22:28.435Z,18.29
2023-05-07T17:24:55.236Z,18.16
2023-05-07T17:27:25.112Z,18.07
2023-05-07T17:29:51.911Z,18.01
2023-05-07T17:32:19.353Z,17.95
2023-05-07T17:34:47.233Z,17.91
2023-05-07T17:37:15.101Z,17.85
2023-05-07T17:39:43.052Z,17.79
2023-05-07T17:42:10.866Z,17.72
2023-05-07T17:44:37.830Z,17.66
2023-05-07T17:47:05.286Z,17.57
2023-05-07T17:49:33.847Z,17.49
2023-05-07T17:52:02.005Z,17.42
2023-05-07T17:54:41.603Z,17.34
2023-05-07T17:57:10.461Z,17.28
2023-05-07T17:59:40.267Z,17.20
2023-05-07T18:02:11.874Z,17.15
2023-05-07T18:04:43.248Z,17.05
2023-05-07T18:07:15.154Z,16.99
2023-05-07T18:09:46.283Z,16.91
2023-05-07T18:12:14.307Z,16.86
2023-05-07T18:14:42.547Z,16.81
2023-05-07T18:17:13.623Z,16.69
2023-05-07T18:19:54.485Z,16.58
2023-05-07T18:22:23.401Z,16.47
2023-05-07T18:24:51.606Z,16.44
2023-05-07T18:27:20.318Z,16.38
2023-05-07T18:29:47.982Z,16.29
2023-05-07T18:32:16.741Z,16.20
2023-05-07T18:34:45.004Z,16.11
2023-05-07T18:37:15.905Z,15.97
2023-05-07T18:39:51.578Z,15.86
2023-05-07T18:42:20.314Z,15.76
2023-05-07T18:44:48.310Z,15.73
2023-05-07T18:47:15.682Z,15.60
2023-05-07T18:50:02.659Z,15.48
2023-05-07T18:52:31.297Z,15.33
2023-05-07T18:54:59.349Z,15.20
2023-05-07T18:57:48.206Z,15.16
2023-05-07T19:00:17.039Z,15.01
2023-05-07T19:02:46.826Z,14.94
2023-05-07T19:05:14.880Z,14.85
2023-05-07T19:07:54.256Z,14.58
2023-05-07T19:10:22.334Z,14.48
2023-05-07T19:12:56.585Z,14.49
2023-05-07T19:15:25.152Z,14.34
2023-05-07T19:18:00.698Z,14.22
2023-05-07T19:20:29.922Z,14.05
2023-05-07T19:22:57.522Z,13.97
2023-05-07T19:25:28.406Z,13.89
2023-05-07T19:27:58.755Z,13.85
2023-05-07T19:30:40.824Z,13.77
2023-05-07T19:33:09.237Z,13.76
2023-05-07T19:35:37.312Z,13.53
2023-05-07T19:38:06.682Z,13.39
2023-05-07T19:40:38.428Z,13.34
2023-05-07T19:43:10.678Z,13.31
2023-05-07T19:45:37.748Z,13.18
2023-05-07T19:48:05.129Z,13.13
2023-05-07T19:50:32.476Z,13.12
2023-05-07T19:52:59.156Z,13.13
2023-05-07T19:55:26.117Z,13.00
2023-05-07T19:57:53.282Z,12.85
2023-05-07T20:00:22.098Z,12.74
2023-05-07T20:02:51.299Z,12.74
2023-05-07T20:05:19.084Z,12.70
2023-05-07T20:07:46.412Z,12.54
2023-05-07T20:10:13.705Z,12.50
2023-05-07T20:12:40.752Z,12.48
2023-05-07T20:15:08.167Z,12.46
2023-05-07T20:17:38.265Z,12.48
2023-05-07T20:20:05.939Z,12.40
2023-05-07T20:22:32.905Z,12.41
2023-05-07T20:24:59.859Z,12.39
2023-05-07T20:27:27.138Z,12.33
2023-05-07T20:29:53.984Z,12.28
2023-05-07T20:32:21.996Z,12.23
2023-05-07T20:34:49.743Z,12.14
2023-05-07T20:37:17.761Z,12.14
2023-05-07T20:39:45.298Z,12.18
2023-05-07T20:42:12.986Z,12.14
2023-05-07T20:44:40.685Z,12.03
2023-05-07T20:47:07.868Z,11.95
2023-05-07T20:49:35.925Z,11.92
2023-05-07T20:52:05.651Z,11.87
2023-05-07T20:54:33.905Z,11.91
2023-05-07T20:57:01.041Z,11.93
2023-05-07T20:59:27.870Z,11.88
2023-05-07T21:01:57.039Z,11.82
2023-05-07T21:04:24.128Z,11.81
2023-05-07T21:06:51.601Z,11.77
2023-05-07T21:09:19.541Z,11.71
2023-05-07T21:11:46.733Z,11.62
2023-05-07T21:14:13.883Z,11.51
2023-05-07T21:16:42.988Z,11.51
2023-05-07T21:19:10.534Z,11.44
2023-05-07T21:21:37.824Z,11.40
2023-05-07T21:24:05.801Z,11.37
2023-05-07T21:26:32.596Z,11.38
2023-05-07T21:28:59.553Z,11.33
2023-05-07T21:31:26.685Z,11.33
2023-05-07T21:33:54.010Z,11.26
2023-05-07T21:36:20.969Z,11.27
2023-05-07T21:38:48.168Z,11.21
2023-05-07T21:41:15.321Z,11.15
2023-05-07T21:43:42.530Z,11.15
2023-05-07T21:46:09.923Z,11.14
2023-05-07T21:48:37.556Z,11.11
2023-05-07T21:51:06.763Z,11.07
2023-05-07T21:53:34.432Z,11.10
2023-05-07T21:56:02.390Z,10.97
2023-05-07T21:58:31.166Z,10.88
2023-05-07T22:00:59.042Z,10.80
2023-05-07T22:03:26.158Z,10.74
2023-05-07T22:05:53.707Z,10.73
2023-05-07T22:08:20.972Z,10.72
2023-05-07T22:10:48.105Z,10.70
2023-05-07T22:13:15.038Z,10.66
2023-05-07T22:15:53.201Z,10.65
2023-05-07T22:18:23.863Z,10.56
2023-05-07T22:20:53.699Z,10.58
2023-05-07T22:23:20.608Z,10.58
2023-05-07T22:25:47.843Z,10.50
2023-05-07T22:28:14.804Z,10.52
2023-05-07T22:30:41.823Z,10.55
2023-05-07T22:33:08.919Z,10.43
2023-05-07T22:35:35.893Z,10.40
2023-05-07T22:38:02.727Z,10.36
2023-05-07T22:40:29.563Z,10.44
2023-05-07T22:42:56.458Z,10.34
2023-05-07T22:45:23.461Z,10.33
2023-05-07T22:47:50.588Z,10.27
2023-05-07T22:50:18.320Z,10.24
2023-05-07T22:52:45.241Z,10.17
2023-05-07T22:55:12.061Z,10.22
2023-05-07T22:57:39.182Z,10.09
2023-05-07T23:00:06.918Z,10.06
2023-05-07T23:02:34.125Z,9.99
2023-05-07T23:05:02.252Z,10.00
2023-05-07T23:07:29.501Z,9.93
2023-05-07T23:09:56.648Z,9.88
2023-05-07T23:12:23.556Z,9.90
2023-05-07T23:14:50.661Z,9.83
2023-05-07T23:17:17.487Z,9.75
2023-05-07T23:19:44.914Z,9.66
2023-05-07T23:22:12.805Z,9.67
2023-05-07T23:24:40.044Z,9.65
2023-05-07T23:27:08.238Z,9.61
2023-05-07T23:29:35.734Z,9.62
2023-05-07T23:32:03.114Z,9.59
2023-05-07T23:34:30.589Z,9.55
2023-05-07T23:36:57.896Z,9.55
2023-05-07T23:39:25.166Z,9.55
2023-05-07T23:41:52.245Z,9.54
2023-05-07T23:44:19.882Z,9.53
2023-05-07T23:46:46.946Z,9.51
2023-05-07T23:49:14.017Z,9.40
2023-05-07T23:51:41.484Z,9.37
2023-05-07T23:54:08.757Z,9.34
2023-05-07T23:56:35.969Z,9.28
2023-05-07T23:59:03.679Z,9.30
